Time;durP1;ratioP1;P1;durP2;ratioP2;P2;SDS_P1;SDS_P2;PMS_P1;PMS_P2;Temp;Humidity;BMP_temperature;BMP_pressure;BME280_temperature;BME280_humidity;BME280_pressure;Samples;Min_cycle;Max_cycle;Signal;HPM_P1;HPM_P2
2022/05/15 00:02:35;;;;;;;24.83;5.90;;;12.30;99.90;;;;;;5071877;28;20072;-67
2022/05/15 00:05:02;;;;;;;33.50;6.45;;;12.40;99.90;;;;;;5071674;28;20381;-67
2022/05/15 00:07:28;;;;;;;30.48;6.13;;;12.40;99.90;;;;;;5071547;28;20048;-67
2022/05/15 00:09:54;;;;;;;20.25;5.47;;;12.30;99.90;;;;;;5070364;28;20385;-67
2022/05/15 00:12:20;;;;;;;24.02;6.05;;;12.30;99.90;;;;;;5070195;28;20072;-67
2022/05/15 00:14:47;;;;;;;26.05;6.03;;;12.20;99.90;;;;;;5069611;28;20396;-67
2022/05/15 00:17:13;;;;;;;20.35;6.05;;;12.20;99.90;;;;;;5068313;28;20040;-67
2022/05/15 00:19:39;;;;;;;23.73;5.55;;;12.20;99.90;;;;;;5070157;28;20055;-67
2022/05/15 00:22:07;;;;;;;31.45;5.50;;;12.20;99.90;;;;;;5070730;28;20094;-67
2022/05/15 00:24:33;;;;;;;24.23;6.00;;;12.00;99.90;;;;;;5069791;28;20040;-67
2022/05/15 00:26:59;;;;;;;30.10;6.55;;;12.00;99.90;;;;;;5071092;28;20051;-66
2022/05/15 00:29:25;;;;;;;19.92;6.10;;;12.00;99.90;;;;;;5070262;28;20044;-67
2022/05/15 00:31:50;;;;;;;25.45;6.53;;;12.10;99.90;;;;;;5071159;28;20451;-67
2022/05/15 00:34:16;;;;;;;26.98;5.97;;;12.00;99.90;;;;;;5070165;28;20040;-67
2022/05/15 00:36:42;;;;;;;24.95;5.63;;;11.90;99.90;;;;;;5071317;28;20374;-68
2022/05/15 00:39:08;;;;;;;23.92;5.75;;;12.00;99.90;;;;;;5070961;28;20063;-67
2022/05/15 00:41:37;;;;;;;22.83;6.10;;;11.90;99.90;;;;;;5071152;28;20085;-67
2022/05/15 00:44:04;;;;;;;22.83;5.88;;;11.90;99.90;;;;;;5071195;28;20523;-67
2022/05/15 00:46:36;;;;;;;26.38;6.13;;;12.00;99.90;;;;;;5071174;28;20405;-67
2022/05/15 00:49:05;;;;;;;25.40;5.72;;;11.80;99.90;;;;;;5070641;28;20599;-68
2022/05/15 00:51:52;;;;;;;20.13;5.68;;;11.80;99.90;;;;;;5071281;28;20044;-67
2022/05/15 00:54:26;;;;;;;21.52;5.97;;;11.90;99.90;;;;;;5070808;28;20028;-67
2022/05/15 00:57:18;;;;;;;24.75;6.68;;;11.90;99.90;;;;;;5069506;28;20055;-66
2022/05/15 01:00:00;;;;;;;20.02;5.47;;;11.90;99.90;;;;;;5027859;28;20061;-67
2022/05/15 01:02:31;;;;;;;23.45;5.95;;;11.90;99.90;;;;;;5028626;28;20088;-68
2022/05/15 01:04:57;;;;;;;27.25;5.88;;;11.90;99.90;;;;;;5028202;28;20057;-67
2022/05/15 01:07:22;;;;;;;22.77;7.28;;;11.90;99.90;;;;;;5027894;28;20041;-66
2022/05/15 01:09:50;;;;;;;23.65;6.30;;;11.80;99.90;;;;;;5027460;28;20044;-67
2022/05/15 01:12:16;;;;;;;27.13;6.65;;;11.80;99.90;;;;;;5026137;28;20045;-67
2022/05/15 01:14:44;;;;;;;24.40;5.90;;;11.70;99.90;;;;;;5026611;28;20048;-66
2022/05/15 01:17:11;;;;;;;24.95;6.65;;;11.60;99.90;;;;;;5027122;28;20052;-66
2022/05/15 01:19:40;;;;;;;27.95;6.25;;;11.60;99.90;;;;;;5026971;28;20052;-66
2022/05/15 01:22:08;;;;;;;26.02;6.43;;;11.60;99.90;;;;;;5027533;28;20107;-67
2022/05/15 01:24:34;;;;;;;26.52;6.53;;;11.70;99.90;;;;;;5028200;28;20049;-66
2022/05/15 01:27:04;;;;;;;21.75;6.72;;;11.60;99.90;;;;;;5028064;28;20049;-66
2022/05/15 01:29:32;;;;;;;34.08;6.45;;;11.50;99.90;;;;;;5027999;28;20112;-67
2022/05/15 01:31:58;;;;;;;25.13;6.45;;;11.60;99.90;;;;;;5028174;28;20041;-67
2022/05/15 01:34:24;;;;;;;23.88;6.20;;;11.70;99.90;;;;;;5028247;28;20498;-67
2022/05/15 01:36:51;;;;;;;24.08;6.43;;;11.60;99.90;;;;;;5051905;28;20055;-66
2022/05/15 01:39:17;;;;;;;22.77;5.90;;;11.60;99.90;;;;;;5070407;28;20050;-66
2022/05/15 01:41:42;;;;;;;25.38;5.93;;;11.50;99.90;;;;;;5070415;28;20474;-66
2022/05/15 01:44:08;;;;;;;20.88;6.07;;;11.50;99.90;;;;;;5069696;28;20036;-67
2022/05/15 01:46:34;;;;;;;31.67;6.50;;;11.50;99.90;;;;;;5070439;28;20060;-67
2022/05/15 01:49:03;;;;;;;21.35;5.90;;;11.50;99.90;;;;;;5069547;28;20052;-68
2022/05/15 01:51:28;;;;;;;15.30;5.57;;;11.40;99.90;;;;;;5070060;28;20048;-67
2022/05/15 01:53:54;;;;;;;26.80;6.55;;;11.20;99.90;;;;;;5070629;28;20044;-66
2022/05/15 01:56:19;;;;;;;25.13;6.55;;;11.30;99.90;;;;;;5070569;28;20385;-67
2022/05/15 01:58:45;;;;;;;24.85;6.55;;;11.30;99.90;;;;;;5069692;28;20059;-66
2022/05/15 02:01:11;;;;;;;20.05;6.32;;;11.30;99.90;;;;;;5071558;28;20048;-66
2022/05/15 02:03:37;;;;;;;19.70;5.95;;;11.30;99.90;;;;;;5070312;28;20040;-67
2022/05/15 02:06:03;;;;;;;20.05;6.15;;;11.20;99.90;;;;;;5070287;28;20040;-67
2022/05/15 02:08:31;;;;;;;19.80;5.82;;;11.20;99.90;;;;;;5069660;28;20488;-67
2022/05/15 02:10:57;;;;;;;26.38;7.15;;;11.20;99.90;;;;;;5068510;28;20033;-67
2022/05/15 02:13:22;;;;;;;25.17;6.35;;;11.20;99.90;;;;;;5069424;28;20093;-66
2022/05/15 02:15:48;;;;;;;23.30;6.22;;;11.20;99.90;;;;;;5070012;28;20115;-68
2022/05/15 02:18:14;;;;;;;21.52;5.57;;;11.20;99.90;;;;;;5069943;28;20025;-66
2022/05/15 02:20:39;;;;;;;19.50;5.85;;;11.20;99.90;;;;;;5069877;28;20127;-66
2022/05/15 02:23:06;;;;;;;19.95;6.43;;;11.20;99.90;;;;;;5070281;28;20072;-67
2022/05/15 02:25:32;;;;;;;22.33;5.78;;;11.00;99.90;;;;;;5070228;28;20032;-66
2022/05/15 02:27:58;;;;;;;27.95;6.72;;;11.00;99.90;;;;;;5069791;28;20051;-66
2022/05/15 02:30:24;;;;;;;25.40;6.13;;;11.10;99.90;;;;;;5068759;28;20076;-65
2022/05/15 02:32:51;;;;;;;19.52;5.78;;;10.90;99.90;;;;;;5071168;28;20060;-66
2022/05/15 02:35:17;;;;;;;19.77;6.63;;;10.90;99.90;;;;;;5073203;28;20550;-66
2022/05/15 02:37:44;;;;;;;26.85;6.50;;;10.90;99.90;;;;;;5073758;28;20128;-66
2022/05/15 02:40:11;;;;;;;22.10;5.97;;;10.90;99.90;;;;;;5072969;28;20041;-66
2022/05/15 02:42:37;;;;;;;23.50;7.07;;;11.00;99.90;;;;;;5073594;28;20067;-67
2022/05/15 02:45:04;;;;;;;20.48;6.00;;;10.90;99.90;;;;;;5073435;28;20044;-66
2022/05/15 02:47:30;;;;;;;28.52;6.45;;;10.80;99.90;;;;;;5073206;28;20058;-65
2022/05/15 02:52:40;;;;;;;22.02;6.93;;;10.90;99.90;;;;;;5073188;28;20489;-66
2022/05/15 02:55:06;;;;;;;18.45;6.18;;;10.90;99.90;;;;;;5073333;28;20040;-66
2022/05/15 02:57:32;;;;;;;24.02;6.97;;;10.90;99.90;;;;;;5073341;28;20036;-66
2022/05/15 02:59:57;;;;;;;21.20;6.60;;;10.80;99.90;;;;;;5072576;28;20090;-68
2022/05/15 03:02:23;;;;;;;20.70;7.13;;;10.70;99.90;;;;;;5072922;28;20080;-66
2022/05/15 03:04:49;;;;;;;21.65;6.50;;;10.70;99.90;;;;;;5073038;28;20044;-66
2022/05/15 03:07:15;;;;;;;29.67;7.05;;;10.80;99.90;;;;;;5072901;28;20040;-66
2022/05/15 03:09:41;;;;;;;25.15;6.30;;;10.80;99.90;;;;;;5072281;28;20071;-66
2022/05/15 03:12:07;;;;;;;15.82;5.95;;;10.80;99.90;;;;;;5072156;28;20079;-66
2022/05/15 03:14:33;;;;;;;26.90;7.10;;;10.60;99.90;;;;;;5072048;28;20036;-66
2022/05/15 03:16:58;;;;;;;21.92;6.47;;;10.70;99.90;;;;;;5073078;28;20044;-66
2022/05/15 03:19:24;;;;;;;19.75;6.90;;;10.60;99.90;;;;;;5072409;28;20040;-66
2022/05/15 03:21:50;;;;;;;26.20;6.85;;;10.70;99.90;;;;;;5072881;28;20048;-66
2022/05/15 03:24:15;;;;;;;25.30;7.20;;;10.70;99.90;;;;;;5072649;28;20184;-66
2022/05/15 03:26:45;;;;;;;28.55;7.50;;;10.50;99.90;;;;;;5072531;28;20043;-65
2022/05/15 03:29:13;;;;;;;23.25;7.50;;;10.40;99.90;;;;;;5072068;28;20397;-66
2022/05/15 03:31:39;;;;;;;24.58;6.70;;;10.40;99.90;;;;;;5072235;28;20043;-66
2022/05/15 03:34:11;;;;;;;29.67;6.90;;;10.30;99.90;;;;;;5069034;28;20178;-65
2022/05/15 03:36:38;;;;;;;27.27;7.00;;;10.40;99.90;;;;;;5069499;28;20040;-66
2022/05/15 03:39:06;;;;;;;25.63;7.38;;;10.30;99.90;;;;;;5068587;28;20044;-66
2022/05/15 03:41:33;;;;;;;29.08;6.70;;;10.30;99.90;;;;;;5071563;28;20141;-66
2022/05/15 03:43:58;;;;;;;23.02;7.05;;;10.50;99.90;;;;;;5070743;28;20051;-66
2022/05/15 03:46:24;;;;;;;18.08;6.88;;;10.50;99.90;;;;;;5071264;28;20044;-67
2022/05/15 03:48:50;;;;;;;25.80;7.35;;;10.50;99.90;;;;;;5070601;28;20072;-66
2022/05/15 03:51:16;;;;;;;25.73;7.05;;;10.40;99.90;;;;;;5072010;28;20076;-66
2022/05/15 03:53:42;;;;;;;27.80;6.85;;;10.40;99.90;;;;;;5071837;28;20078;-66
2022/05/15 03:56:08;;;;;;;21.27;6.85;;;10.40;99.90;;;;;;5071963;28;20439;-65
2022/05/15 03:58:35;;;;;;;22.65;6.63;;;10.30;99.90;;;;;;5071484;28;20040;-65
2022/05/15 04:01:03;;;;;;;23.48;6.43;;;10.40;99.90;;;;;;5071179;28;20044;-66
2022/05/15 04:03:28;;;;;;;27.67;6.90;;;10.50;99.90;;;;;;5070828;28;20032;-66
2022/05/15 04:05:54;;;;;;;21.42;6.70;;;10.40;99.90;;;;;;5071785;28;20158;-66
2022/05/15 04:08:19;;;;;;;23.85;7.05;;;10.30;99.90;;;;;;5070251;28;20036;-66
2022/05/15 04:10:46;;;;;;;30.40;7.72;;;10.30;99.90;;;;;;5071577;28;20074;-67
2022/05/15 04:13:11;;;;;;;24.38;7.60;;;10.40;99.90;;;;;;5071773;28;20094;-66
2022/05/15 04:15:37;;;;;;;28.77;7.18;;;10.30;99.90;;;;;;5071611;28;20044;-65
2022/05/15 04:18:05;;;;;;;20.90;6.00;;;10.30;99.90;;;;;;5071191;28;20079;-67
2022/05/15 04:20:31;;;;;;;27.17;7.60;;;10.40;99.90;;;;;;5071265;28;20130;-67
2022/05/15 04:22:57;;;;;;;23.45;7.20;;;10.40;99.90;;;;;;5070402;28;20119;-66
2022/05/15 04:25:23;;;;;;;24.83;7.93;;;10.40;99.90;;;;;;5071409;28;20143;-65
2022/05/15 04:27:49;;;;;;;24.02;7.57;;;10.40;99.90;;;;;;5071234;28;20094;-66
2022/05/15 04:30:23;;;;;;;21.20;6.88;;;10.50;99.90;;;;;;5071125;28;20032;-66
2022/05/15 04:32:51;;;;;;;23.85;7.03;;;10.50;99.90;;;;;;5070289;28;20508;-66
2022/05/15 04:35:17;;;;;;;28.55;7.72;;;10.50;99.90;;;;;;5071085;28;20046;-66
2022/05/15 04:37:43;;;;;;;27.45;8.07;;;10.60;99.90;;;;;;5071436;28;20116;-66
2022/05/15 04:40:10;;;;;;;26.73;7.95;;;10.60;99.90;;;;;;5070767;28;20037;-65
2022/05/15 04:42:36;;;;;;;22.33;7.05;;;10.70;99.90;;;;;;5070299;28;20044;-67
2022/05/15 04:45:02;;;;;;;26.48;7.60;;;10.70;99.90;;;;;;5070020;28;20036;-67
2022/05/15 04:47:27;;;;;;;27.88;7.18;;;10.80;99.90;;;;;;5071071;28;20048;-66
2022/05/15 04:49:53;;;;;;;29.20;7.03;;;11.00;99.90;;;;;;5070697;28;20515;-66
2022/05/15 04:52:19;;;;;;;24.45;7.07;;;11.10;99.90;;;;;;5071561;28;20032;-66
2022/05/15 04:54:44;;;;;;;25.02;7.47;;;11.20;99.90;;;;;;5070462;28;20093;-66
2022/05/15 04:57:10;;;;;;;24.33;6.82;;;11.20;99.90;;;;;;5071381;28;20036;-67
2022/05/15 04:59:36;;;;;;;20.13;6.85;;;11.30;99.90;;;;;;5070640;28;20055;-66
2022/05/15 05:02:03;;;;;;;29.20;8.20;;;11.40;99.90;;;;;;5070977;28;20045;-66
2022/05/15 05:04:28;;;;;;;25.17;6.93;;;11.50;99.90;;;;;;5070194;28;20047;-66
2022/05/15 05:06:54;;;;;;;28.48;7.35;;;11.60;99.90;;;;;;5070648;28;20036;-67
2022/05/15 05:09:20;;;;;;;16.55;7.28;;;11.70;99.90;;;;;;5069387;28;20504;-65
2022/05/15 05:11:45;;;;;;;28.35;9.25;;;11.80;99.90;;;;;;5069024;28;20036;-65
2022/05/15 05:14:11;;;;;;;27.98;7.65;;;11.90;99.90;;;;;;5070670;28;20037;-66
2022/05/15 05:16:36;;;;;;;22.80;7.35;;;12.10;99.90;;;;;;5070381;28;20032;-67
2022/05/15 05:19:03;;;;;;;28.63;7.88;;;12.20;99.90;;;;;;5070125;28;20087;-66
2022/05/15 05:21:30;;;;;;;20.50;7.40;;;12.20;99.90;;;;;;5069806;28;20124;-66
2022/05/15 05:23:55;;;;;;;22.58;6.85;;;12.40;99.90;;;;;;5069769;28;20044;-66
2022/05/15 05:26:22;;;;;;;26.67;8.10;;;12.50;99.90;;;;;;5069245;28;20427;-66
2022/05/15 05:28:47;;;;;;;29.08;8.77;;;12.60;99.90;;;;;;5070039;28;20036;-65
2022/05/15 05:31:14;;;;;;;29.52;7.72;;;12.70;99.90;;;;;;5070607;28;20044;-66
2022/05/15 05:33:40;;;;;;;26.88;7.35;;;12.80;99.90;;;;;;5070389;28;20551;-66
2022/05/15 05:36:06;;;;;;;27.60;7.32;;;12.80;99.90;;;;;;5070796;28;20037;-66
2022/05/15 05:38:33;;;;;;;24.90;7.30;;;13.00;99.90;;;;;;5070375;28;20044;-65
2022/05/15 05:40:59;;;;;;;27.70;7.35;;;13.20;99.90;;;;;;5070809;28;20037;-67
2022/05/15 05:43:24;;;;;;;28.25;7.32;;;13.30;99.90;;;;;;5069474;28;20062;-66
2022/05/15 05:45:50;;;;;;;25.02;6.85;;;13.30;99.90;;;;;;5070501;28;20051;-65
2022/05/15 05:48:15;;;;;;;22.77;6.60;;;13.40;99.90;;;;;;5070071;28;20405;-66
2022/05/15 05:50:41;;;;;;;27.55;6.72;;;13.50;99.90;;;;;;5070620;28;20040;-67
2022/05/15 05:53:07;;;;;;;21.10;6.90;;;13.60;99.90;;;;;;5070591;28;20041;-66
2022/05/15 05:55:33;;;;;;;32.05;7.43;;;13.60;99.90;;;;;;5070449;28;20037;-66
2022/05/15 05:57:59;;;;;;;27.02;7.40;;;13.80;99.90;;;;;;5068972;28;20040;-66
2022/05/15 06:00:29;;;;;;;20.70;5.88;;;13.70;99.90;;;;;;5069942;28;20040;-65
2022/05/15 06:04:39;;;;;;;24.38;6.22;;;13.90;99.90;;;;;;5070288;28;20141;-66
2022/05/15 06:05:40;;;;;;;23.70;6.70;;;14.00;99.90;;;;;;5070516;28;20056;-66
2022/05/15 06:08:06;;;;;;;21.58;6.65;;;14.00;99.90;;;;;;5074064;28;20044;-67
2022/05/15 06:10:31;;;;;;;21.33;7.35;;;14.10;99.90;;;;;;5073714;28;20063;-68
2022/05/15 06:12:57;;;;;;;22.15;6.30;;;14.30;99.90;;;;;;5074292;28;20047;-66
2022/05/15 06:15:22;;;;;;;22.00;5.97;;;14.30;99.90;;;;;;5074143;28;20041;-66
2022/05/15 06:17:48;;;;;;;26.58;6.70;;;14.40;99.90;;;;;;5074214;28;20047;-66
2022/05/15 06:20:14;;;;;;;23.55;6.80;;;14.50;99.90;;;;;;5073995;28;20056;-68
2022/05/15 06:22:39;;;;;;;26.30;5.97;;;14.50;99.90;;;;;;5073212;28;20044;-68
2022/05/15 06:25:05;;;;;;;19.00;5.95;;;14.50;99.90;;;;;;5073540;28;20040;-68
2022/05/15 06:27:31;;;;;;;18.17;5.57;;;14.60;99.90;;;;;;5072239;28;20076;-66
2022/05/15 06:29:58;;;;;;;21.13;5.38;;;14.60;99.90;;;;;;5073086;28;20028;-67
2022/05/15 06:32:25;;;;;;;19.80;5.97;;;14.70;99.90;;;;;;5073785;28;20044;-68
2022/05/15 06:34:50;;;;;;;23.13;5.65;;;14.80;99.90;;;;;;5073391;28;20059;-67
2022/05/15 06:37:16;;;;;;;30.35;6.43;;;15.10;99.90;;;;;;5072485;28;20470;-68
2022/05/15 06:39:41;;;;;;;22.70;5.30;;;15.20;99.90;;;;;;5072349;28;20040;-68
2022/05/15 06:42:07;;;;;;;20.17;5.03;;;15.20;99.90;;;;;;5071555;28;20389;-68
2022/05/15 06:44:33;;;;;;;21.40;5.50;;;15.30;99.90;;;;;;5074262;28;20119;-68
2022/05/15 06:46:58;;;;;;;22.00;5.53;;;15.30;99.90;;;;;;5073645;28;20127;-68
2022/05/15 06:49:24;;;;;;;18.27;5.03;;;15.30;99.90;;;;;;5072631;28;20079;-68
2022/05/15 06:51:49;;;;;;;18.83;5.55;;;15.40;99.90;;;;;;5073247;28;20068;-68
2022/05/15 06:54:15;;;;;;;21.40;4.68;;;15.50;99.90;;;;;;5073387;28;20040;-69
2022/05/15 06:59:25;;;;;;;16.20;5.03;;;15.60;99.90;;;;;;5072168;28;20053;-69
2022/05/15 07:01:50;;;;;;;20.88;5.65;;;15.70;99.90;;;;;;5072953;28;20040;-68
2022/05/15 07:04:16;;;;;;;16.60;4.70;;;15.70;99.90;;;;;;5072073;28;20048;-67
2022/05/15 07:06:41;;;;;;;19.98;4.53;;;15.80;99.90;;;;;;5073387;28;20041;-66
2022/05/15 07:09:07;;;;;;;19.17;5.28;;;16.00;99.90;;;;;;5072075;28;20032;-66
2022/05/15 07:11:32;;;;;;;16.40;4.20;;;16.10;99.90;;;;;;5072616;28;20064;-68
2022/05/15 07:13:58;;;;;;;18.63;4.18;;;16.10;99.90;;;;;;5071804;28;20037;-68
2022/05/15 07:16:24;;;;;;;13.60;4.00;;;16.10;99.90;;;;;;5072778;28;20389;-68
2022/05/15 07:18:49;;;;;;;18.92;5.03;;;16.20;99.90;;;;;;5071619;28;20421;-67
2022/05/15 07:21:15;;;;;;;21.38;4.53;;;16.20;99.90;;;;;;5072402;28;20115;-68
2022/05/15 07:23:41;;;;;;;17.73;4.10;;;16.20;99.90;;;;;;5071782;28;20052;-68
2022/05/15 07:26:07;;;;;;;18.52;4.15;;;16.30;99.90;;;;;;5072302;28;20155;-68
2022/05/15 07:28:33;;;;;;;14.20;3.60;;;16.40;99.90;;;;;;5072050;28;20082;-68
2022/05/15 07:30:58;;;;;;;19.42;5.82;;;16.40;99.90;;;;;;5071623;28;20044;-68
2022/05/15 07:33:27;;;;;;;18.35;4.38;;;16.60;99.90;;;;;;5072658;28;20041;-67
2022/05/15 07:35:55;;;;;;;13.50;3.85;;;16.60;99.90;;;;;;5072553;28;20032;-67
2022/05/15 07:38:21;;;;;;;15.18;3.90;;;16.80;99.90;;;;;;5072381;28;20033;-68
2022/05/15 07:40:47;;;;;;;21.20;4.43;;;16.90;99.90;;;;;;5071415;28;20040;-68
2022/05/15 07:43:13;;;;;;;16.02;4.18;;;17.00;99.90;;;;;;5072252;28;20055;-68
2022/05/15 07:45:39;;;;;;;23.27;5.13;;;16.90;99.90;;;;;;5071257;28;20036;-67
2022/05/15 07:48:06;;;;;;;20.42;4.63;;;17.10;99.90;;;;;;5071753;28;20063;-68
2022/05/15 07:50:33;;;;;;;21.17;4.20;;;17.20;99.90;;;;;;5069615;28;20037;-67
2022/05/15 07:52:59;;;;;;;16.02;4.13;;;17.10;99.90;;;;;;5071617;28;20063;-68
2022/05/15 07:55:25;;;;;;;19.42;3.95;;;17.20;99.90;;;;;;5071801;28;20051;-69
2022/05/15 07:57:50;;;;;;;18.98;4.10;;;17.40;99.90;;;;;;5070898;28;20233;-69
2022/05/15 08:00:18;;;;;;;18.27;4.45;;;17.50;99.90;;;;;;5071703;28;20135;-70
2022/05/15 08:02:44;;;;;;;19.30;4.25;;;17.70;99.90;;;;;;5071755;28;20040;-70
2022/05/15 08:08:00;;;;;;;18.15;3.90;;;17.80;99.90;;;;;;5071938;28;20044;-69
2022/05/15 08:10:37;;;;;;;21.00;4.47;;;18.00;99.90;;;;;;5070702;28;20573;-69
2022/05/15 08:13:04;;;;;;;22.35;4.50;;;18.00;99.90;;;;;;5071901;28;20051;-69
2022/05/15 08:15:30;;;;;;;15.27;3.45;;;18.10;99.90;;;;;;5071857;28;20037;-69
2022/05/15 08:23:33;;;;;;;20.75;5.50;;;18.10;99.90;;;;;;5071691;28;20055;-69
2022/05/15 08:23:37;;;;;;;20.25;3.88;;;18.10;99.90;;;;;;5078425;28;20045;-69
2022/05/15 08:26:06;;;;;;;17.08;3.65;;;18.00;99.90;;;;;;5080508;28;20036;-68
2022/05/15 08:28:34;;;;;;;19.38;4.32;;;18.10;99.90;;;;;;5080938;28;20514;-69
2022/05/15 08:31:01;;;;;;;16.10;4.65;;;18.20;99.90;;;;;;5081505;28;20028;-69
2022/05/15 08:33:27;;;;;;;18.90;4.53;;;18.10;99.90;;;;;;5091638;28;20032;-69
2022/05/15 08:35:53;;;;;;;14.85;4.22;;;18.30;99.90;;;;;;5091354;28;20036;-69
2022/05/15 08:38:19;;;;;;;17.70;4.63;;;18.30;99.90;;;;;;5091362;28;20040;-69
2022/05/15 08:41:03;;;;;;;19.80;4.25;;;18.40;99.90;;;;;;5091170;28;20040;-69
2022/05/15 08:44:03;;;;;;;18.95;4.10;;;18.50;99.90;;;;;;5091470;28;20124;-68
2022/05/15 08:46:47;;;;;;;20.35;4.28;;;18.50;99.90;;;;;;5066214;28;20054;-68
2022/05/15 08:49:31;;;;;;;18.00;3.90;;;18.50;99.90;;;;;;5090912;28;20468;-68
2022/05/15 08:52:09;;;;;;;25.85;3.85;;;18.70;99.90;;;;;;5089858;28;20484;-68
2022/05/15 08:54:39;;;;;;;17.23;3.65;;;18.90;99.90;;;;;;5091298;28;20066;-68
2022/05/15 08:57:13;;;;;;;19.95;4.45;;;18.90;99.90;;;;;;5091280;28;20074;-68
2022/05/15 08:59:51;;;;;;;19.30;4.10;;;18.90;99.90;;;;;;5090779;28;20048;-68
2022/05/15 09:02:16;;;;;;;26.92;4.85;;;19.00;99.90;;;;;;5091381;28;20043;-68
2022/05/15 09:04:42;;;;;;;21.50;4.38;;;19.00;99.90;;;;;;5091066;28;20040;-68
2022/05/15 09:07:14;;;;;;;19.02;4.50;;;19.10;99.90;;;;;;5089846;28;20122;-68
2022/05/15 09:10:15;;;;;;;16.70;4.25;;;19.30;99.90;;;;;;5090800;28;20043;-68
2022/05/15 09:12:44;;;;;;;21.67;4.45;;;19.50;99.90;;;;;;5052784;28;20093;-69
2022/05/15 09:15:18;;;;;;;21.38;4.13;;;19.40;99.90;;;;;;5091245;28;20132;-68
2022/05/15 09:17:51;;;;;;;25.90;4.47;;;19.40;99.90;;;;;;5091121;28;20097;-68
2022/05/15 09:20:26;;;;;;;17.92;4.47;;;19.40;99.90;;;;;;5090672;28;20131;-68
2022/05/15 09:23:19;;;;;;;16.88;3.72;;;19.30;99.90;;;;;;5090858;28;20052;-69
2022/05/15 09:25:51;;;;;;;21.55;4.32;;;19.40;99.90;;;;;;5089495;28;20044;-68
2022/05/15 09:28:17;;;;;;;21.42;4.40;;;19.50;99.90;;;;;;5090700;28;20477;-69
2022/05/15 09:30:46;;;;;;;20.45;4.03;;;19.50;99.90;;;;;;5090724;28;20090;-68
2022/05/15 09:33:34;;;;;;;21.02;4.95;;;19.60;99.90;;;;;;5090733;28;20040;-68
2022/05/15 09:36:24;;;;;;;19.13;4.13;;;19.50;99.90;;;;;;5090964;28;20036;-68
2022/05/15 09:39:13;;;;;;;27.00;4.95;;;19.50;99.90;;;;;;5090487;28;20040;-68
2022/05/15 09:44:28;;;;;;;14.77;3.88;;;19.70;99.90;;;;;;5094757;28;20480;-68
2022/05/15 09:47:10;;;;;;;17.25;4.38;;;19.70;99.90;;;;;;5094748;28;20040;-68
2022/05/15 09:49:35;;;;;;;16.15;4.45;;;19.80;99.90;;;;;;5094494;28;20036;-68
2022/05/15 09:52:15;;;;;;;19.90;4.38;;;19.80;99.90;;;;;;5094762;28;20062;-68
2022/05/15 09:54:45;;;;;;;16.92;3.75;;;19.90;99.60;;;;;;5093300;28;20069;-68
2022/05/15 09:57:25;;;;;;;22.65;4.82;;;19.90;99.30;;;;;;5094821;28;20078;-68
2022/05/15 09:59:59;;;;;;;26.98;4.30;;;19.90;98.60;;;;;;5094098;28;20707;-68
2022/05/15 10:02:49;;;;;;;18.85;4.30;;;19.90;99.80;;;;;;5094438;28;20044;-68
2022/05/15 10:05:14;;;;;;;20.30;3.88;;;20.10;98.90;;;;;;5094634;28;20044;-68
2022/05/15 10:07:46;;;;;;;21.50;4.15;;;20.10;98.90;;;;;;5094183;28;20135;-68
2022/05/15 10:10:22;;;;;;;23.25;5.03;;;20.10;98.00;;;;;;5094064;28;20040;-68
2022/05/15 10:12:52;;;;;;;17.05;4.80;;;20.10;97.50;;;;;;5094235;28;20040;-69
2022/05/15 10:15:19;;;;;;;17.15;3.88;;;20.10;97.60;;;;;;5094168;28;20040;-69
2022/05/15 10:17:53;;;;;;;16.95;4.28;;;20.20;98.70;;;;;;5094326;28;20119;-68
2022/05/15 10:20:22;;;;;;;22.00;4.15;;;20.20;97.80;;;;;;5093992;28;20040;-68
2022/05/15 10:22:56;;;;;;;22.25;4.65;;;20.10;97.50;;;;;;5094191;28;20055;-68
2022/05/15 10:25:48;;;;;;;20.33;4.00;;;20.30;98.40;;;;;;5094041;28;20101;-68
2022/05/15 10:28:28;;;;;;;18.25;3.75;;;20.30;95.50;;;;;;5093899;28;20048;-69
2022/05/15 10:31:18;;;;;;;24.58;4.53;;;20.30;95.70;;;;;;5094047;28;20048;-68
2022/05/15 10:33:48;;;;;;;20.45;3.67;;;20.40;95.30;;;;;;5093812;28;20032;-68
2022/05/15 10:36:35;;;;;;;20.63;4.22;;;20.40;94.50;;;;;;5094089;28;20032;-69
2022/05/15 10:39:15;;;;;;;19.38;4.43;;;20.50;95.30;;;;;;5093573;28;20040;-69
2022/05/15 10:41:50;;;;;;;19.92;4.55;;;20.50;94.40;;;;;;5092430;28;20044;-68
2022/05/15 10:44:39;;;;;;;17.13;4.35;;;20.50;95.60;;;;;;5093677;28;20044;-68
2022/05/15 10:47:13;;;;;;;20.23;4.25;;;20.60;93.80;;;;;;5092363;28;20497;-68
2022/05/15 10:50:18;;;;;;;16.50;3.53;;;20.70;95.10;;;;;;5093374;28;20038;-69
2022/05/15 10:57:21;;;;;;;15.80;3.92;;;20.90;95.10;;;;;;5070222;28;20123;-68
2022/05/15 10:58:55;;;;;;;22.20;4.68;;;20.90;92.50;;;;;;5092683;28;20089;-69
2022/05/15 11:01:45;;;;;;;15.13;3.80;;;20.80;90.40;;;;;;5093616;28;20042;-69
2022/05/15 11:04:31;;;;;;;12.90;3.58;;;20.90;92.10;;;;;;5093503;28;20036;-68
2022/05/15 11:07:06;;;;;;;19.75;4.47;;;21.00;91.00;;;;;;5093101;28;20567;-68
2022/05/15 11:09:46;;;;;;;14.85;4.38;;;21.10;92.30;;;;;;5093140;28;20083;-68
2022/05/15 11:12:17;;;;;;;18.00;3.85;;;21.10;92.10;;;;;;5093302;28;20040;-68
2022/05/15 11:14:51;;;;;;;18.60;4.13;;;21.10;89.90;;;;;;5093253;28;20107;-68
2022/05/15 11:17:27;;;;;;;15.75;3.72;;;21.10;86.30;;;;;;5093105;28;20317;-68
2022/05/15 11:19:56;;;;;;;20.20;3.80;;;21.20;90.10;;;;;;5092938;28;20051;-69
2022/05/15 11:22:39;;;;;;;21.35;4.18;;;21.40;92.50;;;;;;5093124;28;20060;-68
2022/05/15 11:25:23;;;;;;;19.08;4.07;;;21.30;92.90;;;;;;5093048;28;20036;-68
2022/05/15 11:27:55;;;;;;;17.90;3.78;;;21.20;92.10;;;;;;5092617;28;20101;-68
2022/05/15 11:30:26;;;;;;;;;;;21.40;90.80;;;;;;5092901;28;20520;-69
2022/05/15 11:32:52;;;;;;;14.30;3.22;;;21.50;81.70;;;;;;5092922;28;19920;-68
2022/05/15 11:35:17;;;;;;;14.18;4.50;;;21.50;81.20;;;;;;5092945;28;20397;-69
2022/05/15 11:38:04;;;;;;;12.57;3.75;;;21.40;79.70;;;;;;5092646;28;20063;-68
2022/05/15 11:40:35;;;;;;;16.05;3.95;;;21.50;90.70;;;;;;5092689;28;20071;-68
2022/05/15 11:43:26;;;;;;;16.85;3.63;;;21.40;83.90;;;;;;5090994;28;20568;-68
2022/05/15 11:46:09;;;;;;;14.95;4.38;;;21.40;82.10;;;;;;5092528;28;20113;-68
2022/05/15 11:48:38;;;;;;;13.70;3.75;;;21.30;84.50;;;;;;5092116;28;20040;-68
2022/05/15 11:51:12;;;;;;;14.40;3.90;;;21.40;87.80;;;;;;5092576;28;20040;-69
2022/05/15 11:53:53;;;;;;;19.50;3.95;;;21.50;81.80;;;;;;5092469;28;20063;-68
2022/05/15 11:56:42;;;;;;;19.65;3.80;;;21.50;82.00;;;;;;5092326;28;20069;-69
2022/05/15 11:59:21;;;;;;;19.73;3.90;;;21.60;81.90;;;;;;5091672;28;20047;-68
2022/05/15 12:02:30;;;;;;;12.68;3.33;;;21.60;82.80;;;;;;5092371;28;20044;-69
2022/05/15 12:05:11;;;;;;;12.38;3.38;;;21.80;80.60;;;;;;5043219;28;20048;-68
2022/05/15 12:08:07;;;;;;;15.43;3.17;;;21.90;77.60;;;;;;5091933;28;20046;-68
2022/05/15 12:10:33;;;;;;;13.88;3.80;;;21.90;71.00;;;;;;5091881;28;20040;-69
2022/05/15 12:13:13;;;;;;;12.48;3.70;;;22.00;73.70;;;;;;5092103;28;20040;-68
2022/05/15 12:15:46;;;;;;;16.13;3.58;;;22.00;73.80;;;;;;5091987;28;20032;-68
2022/05/15 12:18:18;;;;;;;15.80;3.60;;;21.90;75.40;;;;;;5091975;28;20047;-68
2022/05/15 12:20:49;;;;;;;17.55;3.47;;;21.90;71.60;;;;;;5091703;28;20085;-68
2022/05/15 12:23:31;;;;;;;17.33;3.65;;;22.00;69.10;;;;;;5091835;28;20123;-67
2022/05/15 12:25:59;;;;;;;14.57;3.67;;;22.00;63.50;;;;;;5091863;28;20416;-68
2022/05/15 12:28:51;;;;;;;16.20;3.85;;;22.00;66.00;;;;;;5091292;28;20040;-68
2022/05/15 12:31:39;;;;;;;12.48;3.65;;;22.10;69.60;;;;;;5091891;28;20044;-68
2022/05/15 12:34:14;;;;;;;13.05;3.40;;;22.00;66.10;;;;;;5091522;28;20039;-68
2022/05/15 12:36:51;;;;;;;12.73;3.05;;;22.20;67.30;;;;;;5091512;28;20040;-69
2022/05/15 12:39:24;;;;;;;14.25;3.33;;;22.20;62.80;;;;;;5091447;28;20400;-69
2022/05/15 12:41:50;;;;;;;14.07;2.85;;;22.10;63.50;;;;;;5091737;28;20071;-68
2022/05/15 12:44:32;;;;;;;15.57;3.00;;;22.40;60.20;;;;;;5091460;28;20586;-68
2022/05/15 12:47:04;;;;;;;12.23;3.10;;;22.40;57.50;;;;;;5091352;28;20170;-68
2022/05/15 12:49:35;;;;;;;11.70;2.80;;;22.40;57.60;;;;;;5091009;28;20732;-68
2022/05/15 12:52:16;;;;;;;13.77;3.00;;;22.40;56.80;;;;;;5091512;28;20273;-68
2022/05/15 12:54:53;;;;;;;15.75;3.50;;;22.40;59.30;;;;;;5091198;28;20040;-68
2022/05/15 12:57:19;;;;;;;13.30;3.17;;;22.50;60.10;;;;;;5091232;28;20043;-68
2022/05/15 12:59:48;;;;;;;14.05;3.63;;;22.60;60.90;;;;;;5090845;28;20044;-68
2022/05/15 13:02:31;;;;;;;14.20;3.17;;;22.60;60.50;;;;;;5091289;28;20115;-68
2022/05/15 13:04:59;;;;;;;14.25;3.60;;;22.50;61.60;;;;;;5091302;28;20040;-69
2022/05/15 13:07:30;;;;;;;14.27;3.90;;;22.40;62.80;;;;;;5090003;28;20119;-68
2022/05/15 13:10:06;;;;;;;16.37;3.37;;;22.40;60.00;;;;;;5090672;28;20106;-69
2022/05/15 13:12:33;;;;;;;12.82;3.83;;;22.60;59.70;;;;;;5091446;28;20032;-69